Time;durP1;ratioP1;P1;durP2;ratioP2;P2;SDS_P1;SDS_P2;PMS_P1;PMS_P2;Temp;Humidity;BMP_temperature;BMP_pressure;BME280_temperature;BME280_humidity;BME280_pressure;Samples;Min_cycle;Max_cycle;Signal;HPM_P1;HPM_P2
2022/01/23 00:01:49;;;;;;;26.00;13.60;;;;;;;-3.34;96.69;100053.63;105185;1271;74156;-78
2022/01/23 00:04:17;;;;;;;25.10;12.80;;;;;;;-3.36;96.68;100050.65;104986;1271;62809;-78
2022/01/23 00:06:46;;;;;;;26.70;13.00;;;;;;;-3.38;96.63;100055.66;105184;1271;61956;-78
2022/01/23 00:09:15;;;;;;;21.50;12.00;;;;;;;-3.42;96.77;100057.39;105224;1271;76162;-78
2022/01/23 00:11:49;;;;;;;21.10;11.60;;;;;;;-3.45;96.74;100058.06;105226;1271;70323;-78
2022/01/23 00:20:00;;;;;;;25.80;13.50;;;;;;;-3.56;96.83;100046.02;105002;1271;62063;-79
2022/01/23 00:22:38;;;;;;;31.70;15.30;;;;;;;-3.61;96.74;100053.61;104929;1272;75592;-80
2022/01/23 00:30:39;;;;;;;24.60;12.30;;;;;;;-3.73;96.86;100063.93;105162;1271;62148;-78
2022/01/23 00:33:09;;;;;;;25.00;13.00;;;;;;;-3.76;96.93;100066.34;105213;1271;62057;-78
2022/01/23 00:35:37;;;;;;;22.60;12.40;;;;;;;-3.80;96.89;100070.48;105201;1271;76084;-78
2022/01/23 00:38:06;;;;;;;22.50;12.80;;;;;;;-3.83;96.98;100074.45;105486;1271;69264;-78
2022/01/23 00:40:35;;;;;;;24.10;14.20;;;;;;;-3.86;97.00;100080.69;105190;1271;74290;-78
2022/01/23 00:43:06;;;;;;;26.70;13.30;;;;;;;-3.90;97.05;100082.55;105206;1271;62180;-78
2022/01/23 00:45:34;;;;;;;19.50;10.50;;;;;;;-3.96;97.08;100078.85;105200;1271;62197;-79
2022/01/23 00:48:08;;;;;;;21.40;13.60;;;;;;;-4.03;96.91;100078.08;105204;1271;76981;-77
2022/01/23 00:50:41;;;;;;;22.30;11.40;;;;;;;-4.12;96.90;100082.34;105097;1271;70601;-78
2022/01/23 00:53:11;;;;;;;27.20;13.50;;;;;;;-4.21;97.02;100079.48;105271;1271;73641;-81
2022/01/23 00:55:39;;;;;;;26.50;13.80;;;;;;;-4.28;97.09;100071.07;105215;1271;62117;-77
2022/01/23 00:58:06;;;;;;;29.10;14.70;;;;;;;-4.36;97.17;100072.55;104892;1271;62150;-78
2022/01/23 01:00:33;;;;;;;27.60;14.20;;;;;;;-4.46;97.11;100082.69;105187;1271;77327;-78
2022/01/23 01:03:00;;;;;;;28.70;14.10;;;;;;;-4.55;97.19;100079.45;105188;1271;69551;-79
2022/01/23 01:05:26;;;;;;;31.90;16.30;;;;;;;-4.65;97.21;100083.15;104870;1271;72635;-79
2022/01/23 01:07:55;;;;;;;31.70;16.10;;;;;;;-4.75;97.43;100086.34;105206;1271;62167;-79
2022/01/23 01:10:27;;;;;;;27.70;16.20;;;;;;;-4.81;97.59;100085.55;105005;1271;234309;-78
2022/01/23 01:12:59;;;;;;;34.50;17.10;;;;;;;-4.89;97.61;100081.47;105169;1271;77104;-78
2022/01/23 01:15:52;;;;;;;36.80;19.10;;;;;;;-4.95;97.80;100083.13;105246;1271;68886;-78
2022/01/23 01:32:10;;;;;;;33.10;18.90;;;;;;;-4.95;98.29;100078.10;105226;1271;73174;-80
2022/01/23 01:34:51;;;;;;;40.30;21.40;;;;;;;-4.93;98.33;100079.34;105282;1271;62055;-79
2022/01/23 01:37:18;;;;;;;30.50;18.40;;;;;;;-4.91;98.37;100078.85;104627;1271;1003902;-79
2022/01/23 01:39:44;;;;;;;35.40;19.40;;;;;;;-4.90;98.29;100079.20;105237;1271;75310;-79
2022/01/23 01:42:11;;;;;;;38.20;19.00;;;;;;;-4.90;98.34;100077.30;104782;1270;1003330;-79
2022/01/23 01:44:38;;;;;;;34.30;18.90;;;;;;;-4.89;98.43;100077.83;105702;1271;73115;-79
2022/01/23 01:47:07;;;;;;;31.60;19.20;;;;;;;-4.87;98.42;100080.98;105739;1271;62068;-79
2022/01/23 01:49:34;;;;;;;36.60;19.70;;;;;;;-4.86;98.46;100083.77;106188;1271;62216;-79
2022/01/23 01:52:02;;;;;;;31.80;16.90;;;;;;;-4.83;98.58;100078.07;106638;1271;76960;-80
2022/01/23 01:54:31;;;;;;;33.50;20.30;;;;;;;-4.80;98.57;100080.38;107535;1271;69395;-78
2022/01/23 01:57:06;;;;;;;38.70;19.20;;;;;;;-4.77;98.56;100083.16;107275;1271;73240;-76
2022/01/23 02:00:01;;;;;;;33.20;19.50;;;;;;;-4.75;98.68;100078.52;106827;1271;62193;-79
2022/01/23 02:11:06;;;;;;;47.50;28.00;;;;;;;-4.69;98.75;100082.93;104944;1271;74288;-79
2022/01/23 02:57:02;;;;;;;50.60;29.20;;;;;;;-4.87;99.25;100108.19;105240;1271;62105;-80
2022/01/23 02:59:32;;;;;;;53.30;34.20;;;;;;;-4.91;99.29;100102.94;105300;1271;75994;-81
2022/01/23 03:04:38;;;;;;;59.20;34.10;;;;;;;-4.93;99.33;100106.02;105571;1270;73368;-78
2022/01/23 03:07:20;;;;;;;53.30;30.60;;;;;;;-4.93;99.40;100105.33;105706;1271;62142;-78
2022/01/23 03:13:16;;;;;;;58.60;33.90;;;;;;;-4.98;99.36;100104.23;105179;1271;75394;-78
2022/01/23 03:15:21;;;;;;;52.10;30.90;;;;;;;-5.00;99.40;100104.54;105215;1271;69412;-78
2022/01/23 03:26:16;;;;;;;63.80;37.20;;;;;;;-5.06;99.55;100109.66;105149;1271;75355;-78
2022/01/23 03:31:40;;;;;;;61.80;34.70;;;;;;;-5.04;99.68;100103.97;105202;1271;73406;-78
2022/01/23 03:34:07;;;;;;;66.00;35.40;;;;;;;-5.04;99.62;100103.63;105145;1271;62056;-79
2022/01/23 03:36:36;;;;;;;65.40;37.50;;;;;;;-5.03;99.64;100093.23;105284;1271;61937;-79
2022/01/23 03:39:09;;;;;;;71.20;36.10;;;;;;;-5.03;99.70;100097.91;105108;1271;76119;-78
2022/01/23 03:41:39;;;;;;;67.40;38.40;;;;;;;-5.04;99.67;100093.22;105232;1271;70422;-79
2022/01/23 03:44:08;;;;;;;71.30;41.30;;;;;;;-5.06;99.63;100094.06;104935;1271;73118;-79
2022/01/23 03:49:33;;;;;;;69.70;42.10;;;;;;;-5.10;99.80;100100.77;105213;1271;62037;-78
2022/01/23 03:52:03;;;;;;;73.60;41.60;;;;;;;-5.11;99.76;100098.52;105198;1271;75981;-78
2022/01/23 03:54:30;;;;;;;77.90;42.70;;;;;;;-5.11;99.91;100094.15;105215;1271;69802;-79
2022/01/23 03:57:00;;;;;;;74.70;44.70;;;;;;;-5.11;99.94;100095.39;105178;1271;74394;-79
2022/01/23 03:59:27;;;;;;;77.20;47.90;;;;;;;-5.10;99.89;100095.92;105320;1271;62200;-80
2022/01/23 04:01:54;;;;;;;75.20;43.40;;;;;;;-5.10;99.90;100095.75;105073;1271;62108;-78
2022/01/23 04:07:21;;;;;;;72.10;43.10;;;;;;;-5.09;99.98;100096.79;105228;1271;70706;-79
2022/01/23 04:09:49;;;;;;;82.40;47.50;;;;;;;-5.07;99.97;100097.00;105178;1271;73188;-79
2022/01/23 04:14:58;;;;;;;72.50;44.00;;;;;;;-5.06;99.99;100100.81;105199;1271;62107;-78
2022/01/23 05:00:32;;;;;;;72.10;38.90;;;;;;;-5.09;100.00;100142.89;105221;1271;69188;-78
2022/01/23 05:05:38;;;;;;;63.60;40.20;;;;;;;-5.01;100.00;100133.98;105189;1271;62145;-79
2022/01/23 05:08:08;;;;;;;62.40;36.90;;;;;;;-4.98;100.00;100137.31;105054;1271;62076;-77
2022/01/23 05:10:35;;;;;;;61.80;36.50;;;;;;;-4.96;100.00;100130.08;105203;1271;74869;-78
2022/01/23 05:13:02;;;;;;;67.30;38.10;;;;;;;-4.94;100.00;100130.98;105205;1271;70518;-78
2022/01/23 05:15:29;;;;;;;59.70;34.40;;;;;;;-4.90;100.00;100133.11;105234;1270;72996;-79
2022/01/23 05:17:56;;;;;;;71.00;38.80;;;;;;;-4.88;100.00;100134.52;105188;1271;62166;-79
2022/01/23 05:20:26;;;;;;;68.60;38.20;;;;;;;-4.87;100.00;100140.77;105206;1269;61993;-77
2022/01/23 05:22:58;;;;;;;71.30;37.40;;;;;;;-4.83;100.00;100153.30;104747;1271;75898;-79
2022/01/23 05:25:28;;;;;;;68.60;36.40;;;;;;;-4.81;100.00;100155.92;104909;1271;69317;-78
2022/01/23 05:27:55;;;;;;;63.50;36.10;;;;;;;-4.80;100.00;100159.23;105161;1271;73399;-79
2022/01/23 05:30:23;;;;;;;70.70;37.90;;;;;;;-4.78;100.00;100162.39;105193;1271;62544;-79
2022/01/23 05:32:51;;;;;;;64.60;37.10;;;;;;;-4.75;100.00;100163.81;105220;1271;62461;-79
2022/01/23 05:35:19;;;;;;;65.70;33.50;;;;;;;-4.74;100.00;100163.49;104905;1271;76218;-80
2022/01/23 05:37:47;;;;;;;63.50;35.20;;;;;;;-4.71;100.00;100161.11;105008;1271;69417;-79
2022/01/23 05:40:16;;;;;;;64.60;36.50;;;;;;;-4.69;100.00;100159.55;105183;1271;74253;-79
2022/01/23 05:42:42;;;;;;;57.20;32.70;;;;;;;-4.68;100.00;100157.48;105295;1271;62136;-78
2022/01/23 05:45:10;;;;;;;66.30;34.80;;;;;;;-4.67;100.00;100156.11;104973;1271;61972;-79
2022/01/23 05:47:37;;;;;;;65.60;36.70;;;;;;;-4.67;100.00;100159.58;105224;1271;75716;-78
2022/01/23 05:50:07;;;;;;;62.30;39.30;;;;;;;-4.66;100.00;100157.53;105200;1271;70648;-79
2022/01/23 05:52:35;;;;;;;62.40;36.80;;;;;;;-4.66;100.00;100160.48;104947;1271;73490;-80
2022/01/23 05:55:04;;;;;;;61.00;36.30;;;;;;;-4.66;100.00;100172.09;105217;1271;62195;-78
2022/01/23 05:57:30;;;;;;;62.40;35.60;;;;;;;-4.65;100.00;100164.13;104722;1272;62447;-78
2022/01/23 05:59:57;;;;;;;61.30;35.60;;;;;;;-4.63;100.00;100167.63;105166;1271;76870;-78
2022/01/23 06:02:24;;;;;;;56.20;33.30;;;;;;;-4.63;100.00;100162.95;105216;1271;69582;-78
2022/01/23 06:04:50;;;;;;;62.30;36.80;;;;;;;-4.63;100.00;100165.02;105231;1271;74158;-78
2022/01/23 06:07:17;;;;;;;70.90;38.50;;;;;;;-4.62;100.00;100161.05;105230;1271;62081;-79
2022/01/23 06:09:44;;;;;;;59.40;34.60;;;;;;;-4.61;100.00;100161.22;105016;1271;62344;-78
2022/01/23 06:12:11;;;;;;;57.00;34.50;;;;;;;-4.61;100.00;100157.92;105211;1271;77061;-79
2022/01/23 06:14:37;;;;;;;57.60;35.80;;;;;;;-4.60;100.00;100159.67;104899;1271;67711;-78
2022/01/23 06:17:04;;;;;;;64.90;37.50;;;;;;;-4.59;100.00;100165.23;105139;1270;74374;-78
2022/01/23 06:19:33;;;;;;;61.80;38.30;;;;;;;-4.59;100.00;100175.46;105131;1270;62201;-79
2022/01/23 06:22:00;;;;;;;59.20;36.10;;;;;;;-4.58;100.00;100184.84;105130;1271;62066;-78
2022/01/23 06:24:30;;;;;;;64.00;38.10;;;;;;;-4.57;100.00;100185.21;105172;1271;77040;-78
2022/01/23 06:27:00;;;;;;;62.50;39.60;;;;;;;-4.56;100.00;100183.49;105142;1271;68404;-80
2022/01/23 06:29:31;;;;;;;;;;;;;;;-4.54;100.00;100189.75;105359;1269;74453;-78
2022/01/23 06:32:00;;;;;;;63.10;39.40;;;;;;;-4.52;100.00;100190.14;104905;1271;62179;-78
2022/01/23 06:34:28;;;;;;;60.30;38.90;;;;;;;-4.49;100.00;100190.70;105358;1271;62191;-79
2022/01/23 06:36:55;;;;;;;63.80;36.80;;;;;;;-4.46;100.00;100187.45;105353;1271;75794;-78
2022/01/23 06:39:23;;;;;;;63.30;37.10;;;;;;;-4.42;100.00;100193.22;105220;1270;69194;-79
2022/01/23 06:41:51;;;;;;;60.00;36.70;;;;;;;-4.39;100.00;100190.65;105403;1271;73425;-79
2022/01/23 06:44:18;;;;;;;62.80;37.40;;;;;;;-4.37;100.00;100202.48;105245;1271;62031;-78
2022/01/23 06:46:45;;;;;;;60.10;37.00;;;;;;;-4.34;100.00;100210.66;104495;1271;1003583;-80
2022/01/23 06:49:11;;;;;;;68.60;40.40;;;;;;;-4.32;100.00;100199.75;105195;1274;76607;-79
2022/01/23 06:51:39;;;;;;;63.50;40.80;;;;;;;-4.28;100.00;100213.67;104991;1274;69451;-79
2022/01/23 06:54:06;;;;;;;66.80;41.10;;;;;;;-4.25;100.00;100226.05;105075;1274;74710;-79
2022/01/23 06:56:32;;;;;;;76.50;44.70;;;;;;;-4.22;100.00;100236.65;104880;1274;62207;-78
2022/01/23 06:58:59;;;;;;;75.30;45.00;;;;;;;-4.19;100.00;100236.52;104952;1274;62097;-77
2022/01/23 07:01:26;;;;;;;75.90;45.00;;;;;;;-4.18;100.00;100234.29;104957;1274;76903;-80
2022/01/23 07:03:52;;;;;;;71.30;44.90;;;;;;;-4.16;100.00;100231.52;104976;1274;69180;-79
2022/01/23 07:06:19;;;;;;;70.10;41.30;;;;;;;-4.14;100.00;100228.95;104921;1273;74552;-80
2022/01/23 07:08:46;;;;;;;66.80;40.50;;;;;;;-4.11;100.00;100230.90;104912;1274;62143;-79
2022/01/23 07:11:13;;;;;;;69.80;42.40;;;;;;;-4.08;100.00;100226.06;104947;1274;62130;-80
2022/01/23 07:13:39;;;;;;;73.40;42.70;;;;;;;-4.07;100.00;100225.22;104921;1274;76084;-79
2022/01/23 07:16:06;;;;;;;67.60;44.50;;;;;;;-4.04;100.00;100234.11;104930;1274;70186;-79
2022/01/23 07:18:33;;;;;;;67.30;41.00;;;;;;;-4.00;100.00;100236.41;104947;1274;73328;-79
2022/01/23 07:21:00;;;;;;;65.00;39.20;;;;;;;-3.97;100.00;100236.80;105102;1274;62157;-79
2022/01/23 07:23:27;;;;;;;62.50;39.20;;;;;;;-3.94;100.00;100242.38;104949;1274;62277;-79
2022/01/23 07:25:54;;;;;;;66.50;41.30;;;;;;;-3.91;100.00;100250.92;104943;1274;76181;-79
2022/01/23 07:28:23;;;;;;;64.90;40.20;;;;;;;-3.87;100.00;100250.96;105200;1268;70441;-77
2022/01/23 07:30:53;;;;;;;68.80;45.00;;;;;;;-3.84;100.00;100257.43;105171;1271;73872;-80
2022/01/23 07:33:19;;;;;;;64.00;41.00;;;;;;;-3.83;100.00;100256.75;105233;1271;62194;-78
2022/01/23 07:35:47;;;;;;;60.00;37.60;;;;;;;-3.81;100.00;100252.77;105192;1271;62086;-80
2022/01/23 07:38:18;;;;;;;66.60;39.80;;;;;;;-3.81;100.00;100256.09;105269;1271;76037;-79
2022/01/23 07:40:48;;;;;;;67.30;41.20;;;;;;;-3.80;100.00;100256.77;105211;1270;69311;-80
2022/01/23 07:43:15;;;;;;;70.50;42.60;;;;;;;-3.79;100.00;100257.83;105234;1271;74484;-79
2022/01/23 07:45:43;;;;;;;69.80;42.90;;;;;;;-3.77;100.00;100260.13;105158;1271;62200;-81
2022/01/23 07:48:10;;;;;;;78.30;44.90;;;;;;;-3.72;100.00;100257.04;104648;1270;1003169;-78
2022/01/23 07:50:37;;;;;;;66.80;40.20;;;;;;;-3.68;100.00;100259.36;103789;1271;1003005;-79
2022/01/23 07:53:04;;;;;;;74.10;43.30;;;;;;;-3.64;100.00;100263.05;105138;1271;69163;-78
2022/01/23 07:55:32;;;;;;;67.80;41.60;;;;;;;-3.61;100.00;100266.02;105190;1271;73217;-80
2022/01/23 07:58:12;;;;;;;62.50;38.60;;;;;;;-3.58;100.00;100271.09;104967;1271;62184;-80
2022/01/23 08:00:40;;;;;;;61.50;39.50;;;;;;;-3.55;100.00;100284.67;105302;1271;62068;-79
2022/01/23 08:03:08;;;;;;;67.50;42.30;;;;;;;-3.52;100.00;100291.14;105352;1271;77158;-80
2022/01/23 08:05:37;;;;;;;60.90;40.30;;;;;;;-3.51;100.00;100283.67;105400;1271;67311;-78
2022/01/23 08:08:04;;;;;;;67.50;42.30;;;;;;;-3.47;100.00;100276.59;105475;1271;73167;-79
2022/01/23 08:10:31;;;;;;;68.80;43.30;;;;;;;-3.44;100.00;100275.92;105121;1271;62290;-79
2022/01/23 08:12:58;;;;;;;76.00;45.50;;;;;;;-3.44;100.00;100280.10;105297;1271;62104;-79
2022/01/23 08:15:25;;;;;;;75.50;45.20;;;;;;;-3.40;100.00;100283.43;105349;1271;77175;-78
2022/01/23 08:17:51;;;;;;;76.70;47.40;;;;;;;-3.35;100.00;100286.62;105434;1271;69070;-79
2022/01/23 08:20:18;;;;;;;79.50;47.60;;;;;;;-3.29;100.00;100300.06;105519;1271;71291;-81
2022/01/23 08:22:45;;;;;;;67.30;41.60;;;;;;;-3.24;100.00;100305.15;105529;1271;62078;-79
2022/01/23 08:25:11;;;;;;;72.40;46.50;;;;;;;-3.17;100.00;100304.36;105589;1271;62088;-79
2022/01/23 08:27:38;;;;;;;75.10;44.20;;;;;;;-3.07;100.00;100299.74;105948;1271;78165;-78
2022/01/23 08:30:06;;;;;;;74.10;47.60;;;;;;;-3.00;100.00;100309.02;105594;1276;67494;-78
2022/01/23 08:32:32;;;;;;;77.80;45.90;;;;;;;-2.91;100.00;100307.03;105234;1277;74881;-80
2022/01/23 08:34:59;;;;;;;81.40;49.60;;;;;;;-2.86;100.00;100308.11;105127;1276;62079;-80
2022/01/23 08:37:26;;;;;;;79.70;49.10;;;;;;;-2.78;100.00;100307.82;105314;1276;62280;-80
2022/01/23 08:39:53;;;;;;;77.10;46.70;;;;;;;-2.69;100.00;100309.11;105298;1277;76513;-77
2022/01/23 08:42:20;;;;;;;82.40;48.90;;;;;;;-2.60;100.00;100311.44;105306;1276;67648;-79
2022/01/23 08:44:48;;;;;;;89.30;57.30;;;;;;;-2.52;100.00;100309.06;105120;1276;75018;-80
2022/01/23 08:47:16;;;;;;;399.40;292.60;;;;;;;-2.43;100.00;100308.45;107170;1276;62105;-79
2022/01/23 08:49:47;;;;;;;130.20;95.60;;;;;;;-2.37;100.00;100315.61;106444;1276;62061;-79
2022/01/23 08:52:17;;;;;;;99.10;66.40;;;;;;;-2.29;100.00;100317.93;107213;1276;74138;-80
2022/01/23 08:54:49;;;;;;;91.30;57.90;;;;;;;-2.20;99.98;100316.76;106780;1276;69321;-80
2022/01/23 08:57:18;;;;;;;80.90;52.40;;;;;;;-2.13;99.94;100311.41;106210;1277;73169;-78
2022/01/23 08:59:46;;;;;;;72.80;45.60;;;;;;;-2.06;99.72;100311.63;106755;1275;62271;-77
2022/01/23 09:02:13;;;;;;;69.80;46.10;;;;;;;-2.01;99.75;100314.42;106006;1271;62143;-78
2022/01/23 09:04:40;;;;;;;71.70;44.80;;;;;;;-1.91;99.59;100316.92;105180;1271;77190;-80
2022/01/23 09:07:07;;;;;;;77.60;47.60;;;;;;;-1.85;99.37;100326.53;104590;1271;1004172;-79
2022/01/23 09:09:38;;;;;;;78.30;46.80;;;;;;;-1.79;99.35;100330.05;105003;1271;73297;-80
2022/01/23 09:12:26;;;;;;;79.80;48.80;;;;;;;-1.70;99.28;100329.38;105295;1271;62095;-79
2022/01/23 09:14:52;;;;;;;78.20;44.60;;;;;;;-1.63;99.11;100335.16;105325;1271;62091;-80
2022/01/23 09:17:19;;;;;;;77.50;45.20;;;;;;;-1.58;98.96;100339.89;105227;1271;76784;-80
2022/01/23 09:19:47;;;;;;;80.00;47.80;;;;;;;-1.56;98.49;100345.46;105230;1271;69081;-80
2022/01/23 09:22:15;;;;;;;74.30;47.60;;;;;;;-1.52;98.51;100343.92;105060;1271;73561;-80
2022/01/23 09:24:42;;;;;;;71.50;43.10;;;;;;;-1.46;98.59;100343.42;105348;1271;62059;-82
2022/01/23 09:27:18;;;;;;;79.10;45.50;;;;;;;-1.40;98.26;100343.61;105001;1271;62349;-77
2022/01/23 09:29:51;;;;;;;77.80;46.80;;;;;;;-1.35;98.10;100348.00;105153;1271;77057;-79
2022/01/23 09:32:21;;;;;;;73.80;43.80;;;;;;;-1.28;97.99;100350.79;105528;1271;69475;-78
2022/01/23 09:34:48;;;;;;;66.30;41.20;;;;;;;-1.23;97.85;100350.64;105204;1271;74472;-79
2022/01/23 09:37:17;;;;;;;67.80;41.90;;;;;;;-1.19;97.62;100351.17;105301;1271;62174;-79
2022/01/23 09:39:49;;;;;;;67.90;40.60;;;;;;;-1.14;97.44;100351.18;104986;1271;62424;-79
2022/01/23 09:42:27;;;;;;;62.60;41.40;;;;;;;-1.08;97.32;100352.42;105327;1271;76122;-80
2022/01/23 09:44:58;;;;;;;62.00;40.60;;;;;;;-1.02;97.43;100351.90;105245;1271;70199;-81
2022/01/23 09:47:26;;;;;;;64.60;39.60;;;;;;;-0.98;96.88;100353.66;105174;1271;74854;-80
2022/01/23 09:49:54;;;;;;;66.20;37.90;;;;;;;-0.91;97.23;100349.83;105220;1271;62191;-81
2022/01/23 09:52:21;;;;;;;62.20;39.20;;;;;;;-0.83;96.44;100340.95;105244;1271;62274;-82
2022/01/23 09:54:57;;;;;;;58.10;36.70;;;;;;;-0.81;96.44;100338.86;105297;1271;76167;-79
2022/01/23 09:57:31;;;;;;;62.80;38.50;;;;;;;-0.79;96.29;100333.62;104924;1271;70088;-79
2022/01/23 10:00:00;;;;;;;54.50;35.30;;;;;;;-0.77;95.89;100332.92;105008;1271;73174;-79
2022/01/23 10:02:28;;;;;;;58.90;36.00;;;;;;;-0.81;95.52;100323.84;105068;1271;62284;-80
2022/01/23 10:04:55;;;;;;;60.40;37.50;;;;;;;-0.79;96.05;100311.98;104932;1271;62382;-79
2022/01/23 10:07:22;;;;;;;54.40;36.10;;;;;;;-0.62;96.32;100310.42;105267;1271;74368;-80
2022/01/23 10:09:56;;;;;;;63.60;39.70;;;;;;;-0.47;95.92;100308.31;105238;1271;70401;-79
2022/01/23 10:12:26;;;;;;;57.80;36.90;;;;;;;-0.32;96.19;100318.77;105208;1271;72801;-78
2022/01/23 10:14:56;;;;;;;55.20;37.90;;;;;;;-0.15;96.25;100327.46;105226;1271;62156;-79
2022/01/23 10:17:23;;;;;;;56.00;37.40;;;;;;;0.05;95.87;100330.04;105244;1271;62173;-80
2022/01/23 10:19:50;;;;;;;52.10;34.80;;;;;;;0.13;95.52;100329.50;105232;1271;76968;-80
2022/01/23 10:22:17;;;;;;;57.60;35.90;;;;;;;0.17;95.31;100330.35;105271;1271;69204;-78
2022/01/23 10:24:44;;;;;;;50.90;33.30;;;;;;;0.18;95.04;100331.05;105262;1271;73230;-79
2022/01/23 10:27:11;;;;;;;47.40;31.70;;;;;;;0.15;94.99;100335.27;105262;1271;62203;-79
2022/01/23 10:29:43;;;;;;;58.90;35.50;;;;;;;0.17;94.97;100325.47;105256;1271;62084;-79
2022/01/23 10:32:21;;;;;;;51.10;33.10;;;;;;;0.22;95.15;100330.52;105251;1271;76838;-78
2022/01/23 10:34:57;;;;;;;48.30;32.20;;;;;;;0.32;95.03;100337.64;105197;1271;70362;-79
2022/01/23 10:37:26;;;;;;;53.20;32.30;;;;;;;0.37;94.46;100332.73;105239;1271;74158;-80
2022/01/23 10:39:53;;;;;;;51.40;32.80;;;;;;;0.43;94.44;100329.55;105505;1271;62083;-80
2022/01/23 10:47:54;;;;;;;47.50;30.60;;;;;;;0.67;94.30;100321.93;105046;1271;69635;-80
2022/01/23 10:50:24;;;;;;;49.20;32.70;;;;;;;0.64;93.68;100324.57;105128;1271;73500;-79
2022/01/23 10:52:53;;;;;;;43.30;30.30;;;;;;;0.65;93.96;100325.95;105387;1271;62173;-80
2022/01/23 10:55:20;;;;;;;46.50;31.30;;;;;;;0.66;93.24;100322.81;105330;1271;62177;-80
2022/01/23 10:57:48;;;;;;;49.80;33.40;;;;;;;0.67;93.52;100321.59;105272;1271;62117;-79
2022/01/23 11:00:27;;;;;;;48.20;33.00;;;;;;;0.75;93.30;100324.16;105044;1271;69207;-79
2022/01/23 11:02:55;;;;;;;46.70;32.40;;;;;;;0.80;92.74;100322.91;105207;1271;74650;-80
2022/01/23 11:05:39;;;;;;;51.30;32.80;;;;;;;0.79;92.88;100326.77;105082;1271;62213;-80
2022/01/23 11:08:25;;;;;;;54.90;35.00;;;;;;;0.86;92.88;100325.33;105108;1271;62196;-79
2022/01/23 11:10:53;;;;;;;44.40;31.70;;;;;;;0.91;92.84;100323.19;105318;1271;76072;-78
2022/01/23 11:19:26;;;;;;;51.40;32.80;;;;;;;0.98;93.07;100303.02;105157;1271;62176;-79
2022/01/23 11:21:54;;;;;;;47.60;31.40;;;;;;;1.06;93.17;100305.41;105216;1271;62256;-80
2022/01/23 11:24:22;;;;;;;49.40;32.20;;;;;;;1.09;92.86;100311.70;105237;1271;76210;-80
2022/01/23 11:27:00;;;;;;;45.90;30.70;;;;;;;1.09;92.93;100314.30;105130;1271;70103;-79
2022/01/23 11:29:26;;;;;;;39.70;28.00;;;;;;;1.09;92.49;100317.30;105131;1271;73277;-79
2022/01/23 11:31:53;;;;;;;45.20;30.50;;;;;;;0.99;92.40;100320.68;105114;1271;62116;-81
2022/01/23 11:34:22;;;;;;;43.10;29.10;;;;;;;0.97;92.86;100321.05;105145;1271;62509;-79
2022/01/23 11:36:51;;;;;;;48.50;33.30;;;;;;;1.05;93.24;100319.60;105221;1271;76142;-81
2022/01/23 11:39:36;;;;;;;46.90;31.20;;;;;;;1.15;93.10;100318.99;105144;1271;69356;-80
2022/01/23 11:56:32;;;;;;;42.10;28.20;;;;;;;0.95;92.10;100323.88;105141;1271;73212;-76
2022/01/23 11:59:18;;;;;;;41.70;27.30;;;;;;;0.88;92.03;100319.01;105175;1271;62107;-78
2022/01/23 12:05:22;;;;;;;36.30;24.30;;;;;;;0.99;92.33;100326.98;105186;1271;77230;-80
2022/01/23 12:08:15;;;;;;;35.00;24.60;;;;;;;1.04;92.37;100333.08;104625;1279;69974;-80
2022/01/23 12:16:33;;;;;;;41.60;25.90;;;;;;;1.21;91.68;100331.92;104243;1284;62120;-80
2022/01/23 12:19:24;;;;;;;35.60;25.30;;;;;;;1.28;92.12;100332.03;104012;1284;76905;-78
2022/01/23 12:21:53;;;;;;;34.30;23.80;;;;;;;1.36;91.93;100325.68;103752;1290;69299;-79
2022/01/23 12:24:23;;;;;;;39.50;25.00;;;;;;;1.29;91.53;100330.27;103781;1291;73386;-78
2022/01/23 12:27:10;;;;;;;37.40;24.60;;;;;;;1.21;91.39;100333.67;103417;1290;62268;-79
2022/01/23 12:29:37;;;;;;;39.30;26.40;;;;;;;1.13;91.22;100329.86;103727;1290;62300;-79
2022/01/23 12:32:16;;;;;;;38.80;25.70;;;;;;;1.10;91.65;100326.38;103741;1290;76198;-80
2022/01/23 12:34:51;;;;;;;41.60;28.30;;;;;;;1.10;91.64;100327.42;103598;1290;69903;-79
2022/01/23 12:37:18;;;;;;;38.20;27.30;;;;;;;1.16;92.12;100325.64;103714;1290;73308;-80
2022/01/23 12:39:46;;;;;;;43.40;26.80;;;;;;;1.19;91.97;100327.73;103561;1291;62138;-79
2022/01/23 12:42:13;;;;;;;44.00;29.00;;;;;;;1.16;91.71;100330.20;103549;1290;62394;-79
2022/01/23 12:44:40;;;;;;;40.70;27.00;;;;;;;1.17;91.79;100329.14;103817;1286;75971;-80
2022/01/23 12:47:18;;;;;;;43.20;27.00;;;;;;;1.15;91.43;100327.75;104268;1285;69227;-79
2022/01/23 12:50:11;;;;;;;38.30;25.80;;;;;;;1.13;91.42;100327.07;104783;1279;73230;-80
2022/01/23 12:52:49;;;;;;;39.50;26.00;;;;;;;1.09;91.49;100332.69;104655;1282;62252;-80
2022/01/23 12:55:18;;;;;;;38.30;25.80;;;;;;;1.07;91.22;100336.92;104615;1282;62357;-80
2022/01/23 12:57:46;;;;;;;41.40;26.50;;;;;;;1.03;91.29;100336.59;104601;1281;77107;-79
2022/01/23 13:00:24;;;;;;;37.90;26.20;;;;;;;1.04;91.49;100342.18;105154;1274;70544;-79
2022/01/23 13:02:53;;;;;;;37.80;26.50;;;;;;;1.04;91.41;100341.13;105315;1274;73304;-80
2022/01/23 13:05:20;;;;;;;40.00;26.10;;;;;;;0.99;91.09;100345.88;104289;1274;1003816;-78
2022/01/23 13:08:07;;;;;;;43.40;27.90;;;;;;;0.90;90.95;100345.58;104969;1274;62156;-78
2022/01/23 13:17:09;;;;;;;41.30;26.40;;;;;;;0.73;91.66;100332.39;105110;1274;71697;-77
2022/01/23 13:27:25;;;;;;;61.70;36.30;;;;;;;0.69;91.44;100339.59;105478;1271;70210;-79
2022/01/23 13:29:58;;;;;;;46.90;30.80;;;;;;;0.62;91.38;100341.02;105567;1271;73159;-79
2022/01/23 13:35:10;;;;;;;48.80;30.80;;;;;;;0.53;91.57;100331.63;105592;1271;61979;-79
2022/01/23 13:37:40;;;;;;;47.20;28.20;;;;;;;0.49;91.62;100329.36;105260;1271;76120;-78
2022/01/23 13:40:09;;;;;;;45.00;30.50;;;;;;;0.46;91.75;100329.02;105322;1271;68851;-78
2022/01/23 13:59:27;;;;;;;50.30;34.20;;;;;;;0.46;92.30;100330.25;105298;1270;62081;-80
2022/01/23 14:04:34;;;;;;;45.40;29.80;;;;;;;0.42;92.23;100331.66;105541;1271;76215;-79
2022/01/23 14:07:01;;;;;;;73.90;44.60;;;;;;;0.39;92.15;100331.15;105227;1271;70150;-78
2022/01/23 14:09:28;;;;;;;50.30;31.50;;;;;;;0.34;92.14;100335.36;105239;1271;74094;-78
2022/01/23 14:12:06;;;;;;;52.50;34.50;;;;;;;0.31;92.29;100335.37;105212;1271;62115;-78
2022/01/23 14:14:33;;;;;;;50.50;31.60;;;;;;;0.28;92.36;100338.36;105199;1271;62268;-78
2022/01/23 14:17:12;;;;;;;59.40;35.90;;;;;;;0.24;92.39;100335.41;105242;1271;77406;-79
2022/01/23 14:19:38;;;;;;;53.80;33.90;;;;;;;0.18;92.68;100336.83;105341;1271;70323;-79
2022/01/23 14:22:05;;;;;;;50.20;35.20;;;;;;;0.14;92.73;100335.27;105227;1271;73322;-77
2022/01/23 14:24:36;;;;;;;52.40;33.20;;;;;;;0.12;92.84;100336.31;105267;1271;62042;-77
2022/01/23 14:27:09;;;;;;;53.40;33.40;;;;;;;0.11;92.91;100333.17;105316;1271;62100;-77
2022/01/23 14:29:54;;;;;;;50.90;33.10;;;;;;;0.07;92.96;100339.12;105281;1271;76968;-77
2022/01/23 14:35:27;;;;;;;52.30;33.90;;;;;;;-0.02;93.02;100349.45;105128;1271;73543;-77
2022/01/23 14:38:14;;;;;;;54.80;36.20;;;;;;;-0.02;93.16;100354.88;104470;1279;62298;-78
2022/01/23 14:40:56;;;;;;;54.00;35.80;;;;;;;-0.06;93.02;100360.30;104647;1279;62165;-78
2022/01/23 14:43:30;;;;;;;74.70;43.80;;;;;;;-0.08;93.28;100366.77;104562;1279;77229;-79
2022/01/23 14:46:03;;;;;;;85.60;46.70;;;;;;;-0.12;93.16;100372.36;104724;1279;70297;-78
2022/01/23 14:48:31;;;;;;;69.50;39.70;;;;;;;-0.15;93.34;100377.78;104516;1279;73003;-78
2022/01/23 14:51:02;;;;;;;73.20;40.50;;;;;;;-0.17;93.32;100381.27;104584;1279;62054;-78
2022/01/23 14:53:30;;;;;;;75.60;40.40;;;;;;;-0.20;93.47;100383.55;104855;1279;62034;-78
2022/01/23 14:56:01;;;;;;;68.50;39.70;;;;;;;-0.21;93.62;100384.95;104562;1282;76256;-78
2022/01/23 14:58:30;;;;;;;60.90;36.90;;;;;;;-0.24;93.71;100388.45;104794;1278;69611;-78